Time;durP1;ratioP1;P1;durP2;ratioP2;P2;SDS_P1;SDS_P2;PMS_P1;PMS_P2;Temp;Humidity;BMP_temperature;BMP_pressure;BME280_temperature;BME280_humidity;BME280_pressure;Samples;Min_cycle;Max_cycle;Signal;HPM_P1;HPM_P2
2023/05/31 00:01:36;;;;;;;8.20;6.10;;;14.30;19.50;;;;;;5043968;28;20247;-81
2023/05/31 00:04:02;;;;;;;8.33;6.90;;;14.30;20.30;;;;;;5033575;28;20637;-80
2023/05/31 00:06:28;;;;;;;7.23;6.20;;;14.40;19.00;;;;;;5041056;28;20707;-81
2023/05/31 00:09:09;;;;;;;6.93;5.80;;;14.40;18.40;;;;;;5043607;28;20165;-78
2023/05/31 00:11:34;;;;;;;7.07;6.07;;;14.40;18.30;;;;;;5045591;28;20198;-79
2023/05/31 00:14:00;;;;;;;9.00;6.80;;;14.30;19.90;;;;;;5050822;28;20199;-80
2023/05/31 00:16:25;;;;;;;8.07;6.33;;;14.30;21.00;;;;;;5051171;28;20289;-80
2023/05/31 00:18:51;;;;;;;7.80;7.00;;;14.30;21.30;;;;;;5033754;28;20184;-81
2023/05/31 00:21:17;;;;;;;9.40;7.30;;;14.20;22.30;;;;;;5015385;28;20605;-81
2023/05/31 00:23:42;;;;;;;7.90;6.27;;;14.20;24.50;;;;;;5032078;28;20735;-80
2023/05/31 00:26:08;;;;;;;7.53;6.73;;;14.20;23.70;;;;;;5031927;28;20170;-82
2023/05/31 00:28:34;;;;;;;9.23;6.53;;;14.20;24.50;;;;;;5033160;28;20202;-82
2023/05/31 00:30:59;;;;;;;7.70;6.20;;;14.20;24.00;;;;;;5031802;28;20182;-81
2023/05/31 00:33:25;;;;;;;7.00;6.30;;;14.20;23.10;;;;;;5032909;28;20197;-80
2023/05/31 00:35:51;;;;;;;10.33;7.13;;;14.20;22.50;;;;;;5032518;28;20207;-81
2023/05/31 00:38:16;;;;;;;6.80;5.90;;;14.20;21.80;;;;;;5032287;28;20607;-81
2023/05/31 00:40:43;;;;;;;6.63;6.03;;;14.20;22.50;;;;;;5033309;28;20189;-81
2023/05/31 00:43:08;;;;;;;10.17;6.43;;;14.20;22.60;;;;;;5032786;28;20228;-82
2023/05/31 00:45:34;;;;;;;8.70;6.60;;;14.20;23.10;;;;;;5033374;28;20257;-80
2023/05/31 00:48:01;;;;;;;8.80;6.10;;;14.10;20.30;;;;;;5032709;28;20180;-80
2023/05/31 00:50:27;;;;;;;10.87;6.87;;;14.00;21.70;;;;;;5032871;28;20295;-81
2023/05/31 00:52:54;;;;;;;9.60;6.83;;;14.00;25.90;;;;;;5032951;28;20485;-81
2023/05/31 00:55:21;;;;;;;7.53;6.73;;;14.00;25.40;;;;;;5033084;28;20278;-80
2023/05/31 00:57:47;;;;;;;7.43;6.47;;;14.00;25.60;;;;;;5016929;28;20165;-80
2023/05/31 01:00:15;;;;;;;9.90;6.87;;;14.10;26.40;;;;;;5036331;28;20176;-80
2023/05/31 01:02:41;;;;;;;9.33;7.23;;;13.90;26.80;;;;;;5018929;28;20257;-80
2023/05/31 01:05:08;;;;;;;8.33;6.47;;;13.90;29.20;;;;;;5037049;28;20198;-85
2023/05/31 01:07:35;;;;;;;7.50;6.37;;;13.80;28.00;;;;;;5041835;28;20171;-81
2023/05/31 01:10:03;;;;;;;7.67;6.43;;;13.90;28.00;;;;;;5028455;28;20179;-80
2023/05/31 01:12:51;;;;;;;7.60;6.47;;;13.80;27.60;;;;;;5035892;28;20195;-84
2023/05/31 01:15:21;;;;;;;7.17;6.47;;;13.90;26.70;;;;;;5036600;28;20273;-80
2023/05/31 01:18:02;;;;;;;6.70;6.03;;;13.90;27.10;;;;;;5036575;28;20269;-83
2023/05/31 01:20:34;;;;;;;7.50;6.70;;;13.80;28.20;;;;;;5019014;28;20613;-82
2023/05/31 01:23:25;;;;;;;8.53;7.17;;;13.80;28.80;;;;;;5018664;28;20178;-83
2023/05/31 01:26:28;;;;;;;7.60;6.80;;;13.70;29.40;;;;;;5036841;28;20171;-80
2023/05/31 01:29:00;;;;;;;7.97;7.07;;;13.60;34.00;;;;;;5036427;28;20187;-82
2023/05/31 01:31:27;;;;;;;9.03;7.23;;;13.70;33.50;;;;;;5036552;28;20166;-80
2023/05/31 01:33:54;;;;;;;8.27;6.30;;;13.70;35.80;;;;;;5036369;28;20198;-81
2023/05/31 01:36:19;;;;;;;7.43;6.63;;;13.60;38.40;;;;;;5036577;28;20758;-81
2023/05/31 01:38:45;;;;;;;8.40;7.37;;;13.60;38.20;;;;;;5035405;28;20266;-84
2023/05/31 01:41:15;;;;;;;8.80;7.33;;;13.50;39.40;;;;;;5036409;28;20571;-81
2023/05/31 01:43:43;;;;;;;7.17;6.37;;;13.50;40.40;;;;;;5018990;28;20254;-84
2023/05/31 01:46:11;;;;;;;8.57;7.67;;;13.50;40.80;;;;;;5018785;28;20201;-84
2023/05/31 01:48:39;;;;;;;11.30;7.90;;;13.40;44.10;;;;;;5035752;28;20181;-81
2023/05/31 01:51:07;;;;;;;9.67;7.57;;;13.40;44.80;;;;;;5036553;28;20357;-81
2023/05/31 01:53:33;;;;;;;8.57;7.73;;;13.40;45.90;;;;;;5036456;28;20209;-81
2023/05/31 01:55:59;;;;;;;8.43;7.50;;;13.30;44.70;;;;;;5036355;28;20230;-80
2023/05/31 01:58:27;;;;;;;8.83;7.23;;;13.30;47.70;;;;;;5036590;28;20300;-84
2023/05/31 02:00:53;;;;;;;9.20;8.30;;;13.40;48.80;;;;;;5035871;28;20166;-84
2023/05/31 02:03:19;;;;;;;8.27;7.47;;;13.30;50.10;;;;;;5018601;28;20179;-81
2023/05/31 02:06:02;;;;;;;7.93;7.13;;;13.40;50.20;;;;;;5036377;28;20170;-84
2023/05/31 02:08:27;;;;;;;8.83;7.53;;;13.40;48.50;;;;;;5051606;28;20177;-84
2023/05/31 02:10:54;;;;;;;8.97;7.77;;;13.40;47.50;;;;;;5056140;28;20161;-83
2023/05/31 02:13:23;;;;;;;9.93;7.97;;;13.30;47.70;;;;;;5055527;28;20169;-86
2023/05/31 02:15:48;;;;;;;8.77;7.87;;;13.40;49.20;;;;;;5055502;28;20296;-79
2023/05/31 02:18:16;;;;;;;9.10;8.03;;;13.50;50.60;;;;;;5037914;28;20211;-84
2023/05/31 02:20:43;;;;;;;9.00;8.10;;;13.40;49.30;;;;;;5055669;28;20260;-84
2023/05/31 02:23:09;;;;;;;8.97;8.07;;;13.40;48.00;;;;;;5056300;28;20236;-83
2023/05/31 02:25:35;;;;;;;9.67;8.50;;;13.40;49.60;;;;;;5055942;28;20248;-85
2023/05/31 02:28:00;;;;;;;9.00;8.10;;;13.30;47.90;;;;;;5055911;28;20221;-84
2023/05/31 02:30:27;;;;;;;10.03;8.70;;;13.30;48.40;;;;;;5055221;28;20193;-80
2023/05/31 02:32:53;;;;;;;8.47;7.40;;;13.30;49.70;;;;;;5037928;28;20189;-84
2023/05/31 02:35:19;;;;;;;9.60;8.60;;;13.40;50.50;;;;;;5055427;28;20561;-84
2023/05/31 02:37:45;;;;;;;11.13;8.50;;;13.30;50.90;;;;;;5037626;28;20166;-81
2023/05/31 02:40:10;;;;;;;8.90;8.00;;;13.20;50.90;;;;;;5036970;28;20285;-85
2023/05/31 02:42:38;;;;;;;10.37;7.93;;;13.20;52.90;;;;;;5037448;28;20643;-81
2023/05/31 02:45:05;;;;;;;9.27;8.37;;;13.10;56.70;;;;;;5054701;28;20243;-80
2023/05/31 02:47:31;;;;;;;9.70;8.50;;;13.10;57.80;;;;;;5037533;28;20177;-82
2023/05/31 02:49:56;;;;;;;9.53;8.63;;;13.10;56.90;;;;;;5054737;28;20177;-84
2023/05/31 02:52:23;;;;;;;10.70;8.43;;;13.10;56.60;;;;;;5046915;28;20259;-80
2023/05/31 02:54:49;;;;;;;9.70;8.60;;;13.10;59.10;;;;;;5071828;28;20223;-81
2023/05/31 02:57:15;;;;;;;9.63;8.70;;;13.00;59.20;;;;;;5062179;28;20165;-81
2023/05/31 02:59:43;;;;;;;9.87;8.53;;;13.10;60.60;;;;;;5066749;28;20209;-79
2023/05/31 03:02:12;;;;;;;9.53;8.60;;;13.00;62.30;;;;;;5061153;28;20198;-80
2023/05/31 03:04:39;;;;;;;11.07;8.87;;;13.00;61.10;;;;;;5075684;28;20177;-80
2023/05/31 03:07:05;;;;;;;10.70;9.43;;;13.00;61.40;;;;;;5076012;28;20197;-82
2023/05/31 03:09:31;;;;;;;9.53;8.60;;;13.00;61.80;;;;;;5040582;28;20169;-81
2023/05/31 03:11:57;;;;;;;9.43;8.33;;;13.00;60.20;;;;;;5055456;28;20163;-81
2023/05/31 03:14:22;;;;;;;9.97;8.93;;;12.90;60.80;;;;;;5039764;28;20199;-81
2023/05/31 03:16:48;;;;;;;10.80;9.03;;;12.90;66.50;;;;;;5069242;28;20217;-80
2023/05/31 03:19:13;;;;;;;13.30;9.70;;;12.90;69.30;;;;;;5047596;28;20170;-79
2023/05/31 03:21:39;;;;;;;10.93;8.87;;;12.80;69.10;;;;;;5053493;28;20187;-82
2023/05/31 03:24:08;;;;;;;12.10;9.30;;;12.80;67.20;;;;;;5036991;28;20176;-81
2023/05/31 03:26:33;;;;;;;11.70;9.40;;;12.90;68.00;;;;;;5054628;28;20219;-79
2023/05/31 03:28:59;;;;;;;10.20;9.20;;;12.80;70.30;;;;;;5038076;28;20181;-79
2023/05/31 03:31:28;;;;;;;13.07;9.93;;;12.80;70.80;;;;;;5055356;28;20256;-81
2023/05/31 03:33:55;;;;;;;10.77;9.63;;;12.70;74.20;;;;;;5036255;28;20675;-85
2023/05/31 03:36:21;;;;;;;11.40;10.13;;;12.70;74.60;;;;;;5053480;28;20212;-81
2023/05/31 03:38:46;;;;;;;11.80;10.57;;;12.70;75.20;;;;;;5036306;28;20177;-84
2023/05/31 03:41:12;;;;;;;12.57;10.80;;;12.70;74.90;;;;;;5053454;28;20197;-81
2023/05/31 03:43:38;;;;;;;10.70;9.43;;;12.70;74.60;;;;;;5053248;28;20188;-80
2023/05/31 03:46:03;;;;;;;14.03;11.43;;;12.70;77.80;;;;;;5053303;28;20258;-81
2023/05/31 03:48:29;;;;;;;13.70;10.63;;;12.70;78.70;;;;;;5037285;28;20184;-82
2023/05/31 03:50:56;;;;;;;15.77;10.67;;;12.80;77.70;;;;;;5061277;28;20209;-79
2023/05/31 03:53:22;;;;;;;13.83;10.70;;;12.80;73.60;;;;;;5074163;28;20195;-78
2023/05/31 03:55:47;;;;;;;13.03;10.60;;;12.70;77.80;;;;;;5066507;28;20209;-81
2023/05/31 03:58:15;;;;;;;12.23;10.00;;;12.70;76.50;;;;;;5062193;28;20210;-77
2023/05/31 04:00:41;;;;;;;10.93;9.83;;;12.70;80.00;;;;;;5065498;28;20173;-85
2023/05/31 04:03:07;;;;;;;12.13;10.17;;;12.60;78.90;;;;;;5046178;28;20183;-82
2023/05/31 04:05:33;;;;;;;14.83;10.10;;;12.60;79.50;;;;;;5047237;28;20539;-83
2023/05/31 04:08:02;;;;;;;12.00;10.33;;;12.60;81.60;;;;;;5065744;28;20193;-79
2023/05/31 04:10:28;;;;;;;11.57;10.33;;;12.60;82.30;;;;;;5060271;28;20165;-82
2023/05/31 04:12:54;;;;;;;15.40;11.27;;;12.60;82.70;;;;;;5058889;28;20234;-81
2023/05/31 04:15:20;;;;;;;14.80;10.93;;;12.60;83.50;;;;;;5060182;28;20743;-79
2023/05/31 04:17:45;;;;;;;15.03;10.70;;;12.60;82.60;;;;;;5063254;28;20192;-82
2023/05/31 04:20:12;;;;;;;14.13;10.93;;;12.60;80.90;;;;;;5043059;28;20616;-81
2023/05/31 04:22:37;;;;;;;12.23;10.43;;;12.70;82.40;;;;;;5059070;28;20169;-79
2023/05/31 04:25:05;;;;;;;15.53;11.20;;;12.70;81.90;;;;;;5047087;28;20181;-78
2023/05/31 04:27:32;;;;;;;15.53;11.17;;;12.70;81.10;;;;;;5065180;28;20183;-79
2023/05/31 04:29:58;;;;;;;14.63;11.37;;;12.70;81.80;;;;;;5063470;28;20542;-81
2023/05/31 04:32:27;;;;;;;15.57;10.63;;;12.60;83.00;;;;;;5050779;28;20416;-80
2023/05/31 04:34:57;;;;;;;12.63;10.90;;;12.70;86.70;;;;;;5067415;28;20197;-81
2023/05/31 04:37:26;;;;;;;16.67;11.07;;;12.60;86.10;;;;;;5065486;28;20165;-78
2023/05/31 04:39:52;;;;;;;14.47;11.00;;;12.70;85.60;;;;;;5068573;28;20160;-78
2023/05/31 04:42:20;;;;;;;12.87;10.50;;;12.80;82.10;;;;;;5068939;28;20180;-80
2023/05/31 04:44:46;;;;;;;12.33;9.93;;;12.60;81.00;;;;;;5041143;28;20605;-83
2023/05/31 04:47:15;;;;;;;12.47;11.20;;;12.60;84.30;;;;;;5059634;28;20637;-81
2023/05/31 04:49:41;;;;;;;12.97;11.23;;;12.60;85.00;;;;;;5044404;28;20571;-84
2023/05/31 04:52:09;;;;;;;13.50;11.33;;;12.70;84.40;;;;;;5061519;28;20173;-80
2023/05/31 04:54:37;;;;;;;14.47;11.63;;;12.70;83.50;;;;;;5058939;28;20170;-81
2023/05/31 04:57:04;;;;;;;16.07;12.53;;;12.80;82.60;;;;;;5058716;28;20602;-80
2023/05/31 04:59:30;;;;;;;16.30;10.87;;;12.80;77.70;;;;;;5041207;28;20165;-84
2023/05/31 05:01:57;;;;;;;18.47;12.37;;;13.00;78.00;;;;;;5040889;28;20625;-80
2023/05/31 05:04:23;;;;;;;14.97;11.80;;;12.80;78.70;;;;;;5058847;28;20169;-82
2023/05/31 05:06:50;;;;;;;13.50;11.97;;;12.80;79.30;;;;;;5057211;28;20180;-83
2023/05/31 05:09:18;;;;;;;13.80;11.37;;;12.90;80.40;;;;;;5039381;28;20170;-83
2023/05/31 05:11:44;;;;;;;15.97;12.27;;;13.00;74.00;;;;;;5039203;28;20192;-84
2023/05/31 05:14:11;;;;;;;17.20;12.37;;;13.10;72.40;;;;;;5056917;28;20170;-85
2023/05/31 05:16:36;;;;;;;17.43;12.07;;;13.20;67.40;;;;;;5057228;28;20204;-81
2023/05/31 05:19:03;;;;;;;14.03;10.47;;;13.20;64.80;;;;;;5041193;28;20185;-82
2023/05/31 05:21:35;;;;;;;13.67;12.23;;;13.20;62.90;;;;;;5058402;28;20179;-81
2023/05/31 05:24:10;;;;;;;14.53;12.27;;;13.10;66.70;;;;;;5057575;28;20184;-84
2023/05/31 05:26:42;;;;;;;16.27;12.20;;;13.20;69.30;;;;;;5058260;28;20153;-83
2023/05/31 05:29:07;;;;;;;13.97;11.47;;;13.30;66.90;;;;;;5057498;28;20639;-84
2023/05/31 05:31:33;;;;;;;13.87;12.27;;;13.40;59.10;;;;;;5057068;28;20257;-85
2023/05/31 05:33:59;;;;;;;14.07;11.73;;;13.40;57.90;;;;;;5057810;28;20196;-85
2023/05/31 05:36:25;;;;;;;15.27;12.50;;;13.50;56.90;;;;;;5057678;28;20199;-85
2023/05/31 05:38:50;;;;;;;13.43;11.83;;;13.50;54.30;;;;;;5057454;28;20635;-84
2023/05/31 05:41:16;;;;;;;14.93;11.90;;;13.50;56.20;;;;;;5056995;28;20685;-82
2023/05/31 05:43:42;;;;;;;13.13;11.70;;;13.60;54.20;;;;;;5057168;28;20220;-81
2023/05/31 05:46:09;;;;;;;15.03;12.20;;;13.60;49.70;;;;;;5056705;28;20248;-81
2023/05/31 05:48:36;;;;;;;18.13;13.33;;;13.70;48.20;;;;;;5040356;28;20181;-90
2023/05/31 05:51:03;;;;;;;18.53;13.10;;;13.80;47.10;;;;;;5040568;28;20243;-82
2023/05/31 05:53:28;;;;;;;14.83;12.53;;;13.80;45.50;;;;;;5055929;28;20181;-83
2023/05/31 05:55:54;;;;;;;14.63;12.53;;;13.80;42.60;;;;;;5056077;28;20278;-87
2023/05/31 05:58:21;;;;;;;15.20;12.50;;;13.80;41.80;;;;;;5057197;28;20645;-88
2023/05/31 06:00:47;;;;;;;15.20;12.70;;;13.90;42.70;;;;;;5039046;28;20180;-86
2023/05/31 06:03:34;;;;;;;14.73;12.73;;;14.00;40.10;;;;;;5056611;28;20165;-91
2023/05/31 06:05:59;;;;;;;13.33;11.63;;;14.10;36.90;;;;;;5055278;28;20592;-85
2023/05/31 06:08:25;;;;;;;17.50;13.53;;;14.20;32.20;;;;;;5061000;28;20170;-86
2023/05/31 06:10:50;;;;;;;15.83;12.63;;;14.30;30.20;;;;;;5073169;28;20164;-85
2023/05/31 06:13:16;;;;;;;16.50;12.63;;;14.30;27.30;;;;;;5062675;28;20310;-86
2023/05/31 06:15:42;;;;;;;14.97;11.67;;;14.40;29.90;;;;;;5065029;28;20224;-84
2023/05/31 06:18:39;;;;;;;14.93;12.93;;;14.30;26.70;;;;;;5040025;28;20222;-88
2023/05/31 06:21:08;;;;;;;12.63;11.33;;;14.40;29.30;;;;;;5040228;28;20254;-83
2023/05/31 06:23:34;;;;;;;14.20;12.70;;;14.20;28.80;;;;;;5064683;28;20163;-86
2023/05/31 06:26:00;;;;;;;13.57;12.17;;;14.20;37.20;;;;;;5070195;28;20165;-83
2023/05/31 06:28:25;;;;;;;14.63;12.83;;;14.30;33.30;;;;;;5069573;28;20179;-85
2023/05/31 06:30:51;;;;;;;19.80;13.70;;;14.30;34.00;;;;;;5060654;28;20217;-84
2023/05/31 06:33:18;;;;;;;14.70;12.83;;;14.40;36.60;;;;;;5075626;28;20168;-84
2023/05/31 06:35:44;;;;;;;17.47;13.27;;;14.50;31.10;;;;;;5075683;28;20219;-83
2023/05/31 06:38:16;;;;;;;17.13;13.00;;;14.40;28.30;;;;;;5052846;28;20172;-85
2023/05/31 06:40:43;;;;;;;15.57;13.07;;;14.50;29.50;;;;;;5039589;28;20245;-87
2023/05/31 06:43:38;;;;;;;15.80;12.33;;;14.80;26.70;;;;;;5042588;28;20175;-87
2023/05/31 06:46:12;;;;;;;19.07;12.50;;;14.90;20.80;;;;;;5064830;28;20192;-85
2023/05/31 06:48:38;;;;;;;14.07;12.13;;;14.90;20.90;;;;;;5047794;28;20245;-85
2023/05/31 06:51:04;;;;;;;15.40;12.20;;;14.90;18.10;;;;;;5075264;28;20168;-85
2023/05/31 06:53:30;;;;;;;15.37;12.03;;;14.90;18.50;;;;;;5058426;28;20169;-87
2023/05/31 06:55:56;;;;;;;14.10;12.53;;;15.00;23.50;;;;;;5036493;28;20220;-85
2023/05/31 06:58:21;;;;;;;23.90;13.00;;;15.10;15.80;;;;;;5055523;28;20265;-85
2023/05/31 07:00:47;;;;;;;20.30;12.93;;;15.20;10.70;;;;;;5060492;28;20165;-84
2023/05/31 07:03:13;;;;;;;15.77;11.50;;;15.30;12.60;;;;;;5059632;28;20215;-84
2023/05/31 07:05:43;;;;;;;15.90;11.90;;;15.20;9.90;;;;;;5049957;28;20539;-81
2023/05/31 07:08:10;;;;;;;16.63;12.37;;;15.30;13.60;;;;;;5039922;28;20192;-83
2023/05/31 07:10:36;;;;;;;14.20;11.27;;;15.40;8.70;;;;;;5063101;28;20237;-83
2023/05/31 07:13:02;;;;;;;15.53;11.80;;;15.40;1.70;;;;;;5059079;28;20201;-84
2023/05/31 07:15:27;;;;;;;15.40;11.80;;;15.50;4.70;;;;;;5056387;28;20254;-83
2023/05/31 07:17:53;;;;;;;13.73;12.07;;;15.70;5.40;;;;;;5036714;28;20192;-85
2023/05/31 07:20:19;;;;;;;16.17;13.10;;;15.80;1.00;;;;;;5036375;28;20181;-83
2023/05/31 07:22:45;;;;;;;15.47;11.53;;;15.70;1.00;;;;;;5065644;28;20236;-81
2023/05/31 07:25:11;;;;;;;15.90;11.40;;;15.90;1.00;;;;;;5073386;28;20200;-85
2023/05/31 07:27:36;;;;;;;16.43;12.53;;;15.80;1.00;;;;;;5056807;28;20181;-85
2023/05/31 07:30:02;;;;;;;16.17;12.37;;;15.90;1.00;;;;;;5050683;28;20181;-83
2023/05/31 07:32:28;;;;;;;16.17;12.27;;;16.00;1.00;;;;;;5072193;28;20189;-85
2023/05/31 07:35:00;;;;;;;19.90;11.00;;;16.10;1.00;;;;;;5039937;28;20589;-83
2023/05/31 07:37:26;;;;;;;15.27;10.43;;;16.30;1.00;;;;;;5060835;28;20176;-83
2023/05/31 07:39:52;;;;;;;14.63;10.90;;;16.10;1.00;;;;;;5081343;28;20277;-81
2023/05/31 07:42:18;;;;;;;13.87;11.33;;;16.30;1.00;;;;;;5075780;28;20177;-80
2023/05/31 07:44:44;;;;;;;19.30;11.90;;;16.40;1.00;;;;;;5069046;28;20185;-81
2023/05/31 07:47:10;;;;;;;15.50;11.60;;;16.60;1.00;;;;;;5055798;28;20184;-82
2023/05/31 07:49:36;;;;;;;15.97;11.90;;;16.50;1.00;;;;;;5070863;28;20173;-83
2023/05/31 07:52:01;;;;;;;12.97;10.00;;;16.60;1.00;;;;;;5062117;28;20161;-84
2023/05/31 07:54:27;;;;;;;18.23;10.57;;;16.70;1.00;;;;;;5051555;28;20149;-83
2023/05/31 07:56:53;;;;;;;13.83;11.20;;;16.90;1.00;;;;;;5074172;28;20207;-89
2023/05/31 07:59:19;;;;;;;13.13;10.87;;;17.00;1.00;;;;;;5056071;28;20208;-87
2023/05/31 08:01:46;;;;;;;13.20;10.10;;;17.20;1.00;;;;;;5076360;28;20236;-87
2023/05/31 08:04:13;;;;;;;14.37;10.53;;;17.20;1.00;;;;;;5046520;28;20178;-91
2023/05/31 08:06:38;;;;;;;14.67;9.63;;;17.20;1.00;;;;;;5057481;28;20291;-82
2023/05/31 08:09:07;;;;;;;13.17;10.00;;;17.30;1.00;;;;;;5066709;28;20165;-86
2023/05/31 08:11:36;;;;;;;11.03;8.63;;;17.40;1.00;;;;;;5073835;28;20169;-84
2023/05/31 08:14:05;;;;;;;13.77;10.07;;;17.60;1.00;;;;;;5052245;28;20236;-88
2023/05/31 08:16:32;;;;;;;16.23;10.40;;;17.70;1.00;;;;;;5059241;28;20256;-86
2023/05/31 08:19:02;;;;;;;14.30;9.83;;;17.80;1.00;;;;;;5039542;28;20714;-82
2023/05/31 08:21:36;;;;;;;14.17;10.43;;;17.80;1.00;;;;;;5054435;28;20204;-84
2023/05/31 08:24:10;;;;;;;13.93;9.43;;;17.80;1.00;;;;;;5039181;28;20176;-89
2023/05/31 08:26:38;;;;;;;12.07;9.33;;;17.90;1.00;;;;;;5043491;28;20199;-90
2023/05/31 08:29:04;;;;;;;13.37;8.93;;;17.90;1.00;;;;;;5059830;28;20170;-83
2023/05/31 08:31:30;;;;;;;15.10;8.77;;;17.90;1.00;;;;;;5038117;28;20188;-85
2023/05/31 08:33:59;;;;;;;16.10;9.53;;;18.10;1.00;;;;;;5054836;28;20326;-85
2023/05/31 08:36:27;;;;;;;14.50;9.37;;;18.30;1.00;;;;;;5041579;28;20231;-85
2023/05/31 08:38:53;;;;;;;14.00;10.03;;;18.30;1.00;;;;;;5052075;28;20177;-85
2023/05/31 08:41:20;;;;;;;12.43;8.60;;;18.40;1.00;;;;;;5052112;28;20188;-84
2023/05/31 08:43:46;;;;;;;11.47;7.90;;;18.40;1.00;;;;;;5063660;28;20189;-82
2023/05/31 08:46:15;;;;;;;14.67;8.17;;;18.50;1.00;;;;;;5045674;28;20185;-83
2023/05/31 08:48:49;;;;;;;12.70;9.07;;;18.50;1.00;;;;;;5057803;28;20239;-84
2023/05/31 08:51:15;;;;;;;13.73;8.63;;;18.50;1.00;;;;;;5063613;28;20160;-85
2023/05/31 08:53:45;;;;;;;13.63;9.07;;;18.60;1.00;;;;;;5062611;28;20205;-87
2023/05/31 08:56:12;;;;;;;12.20;8.07;;;18.60;1.00;;;;;;5064972;28;20202;-85
2023/05/31 08:58:38;;;;;;;12.37;8.33;;;18.70;1.00;;;;;;5046495;28;20186;-87
2023/05/31 09:01:06;;;;;;;13.83;8.53;;;18.90;1.00;;;;;;5061579;28;20187;-82
2023/05/31 09:03:32;;;;;;;11.00;8.37;;;19.10;1.00;;;;;;5039240;28;20173;-83
2023/05/31 09:05:58;;;;;;;11.07;7.50;;;19.20;1.00;;;;;;5056629;28;20545;-81
2023/05/31 09:08:24;;;;;;;12.10;8.30;;;19.20;1.00;;;;;;5058558;28;20195;-86
2023/05/31 09:10:51;;;;;;;13.17;7.60;;;19.30;1.00;;;;;;5052089;28;20177;-88
2023/05/31 09:13:17;;;;;;;12.17;8.47;;;19.40;1.00;;;;;;5041709;28;20185;-86
2023/05/31 09:15:44;;;;;;;14.47;8.60;;;19.20;1.00;;;;;;5034122;28;20374;-84
2023/05/31 09:18:20;;;;;;;14.13;7.77;;;19.30;1.00;;;;;;5035378;28;20267;-85
2023/05/31 09:20:48;;;;;;;14.60;8.50;;;19.30;1.00;;;;;;5023591;28;20257;-85
2023/05/31 09:23:16;;;;;;;13.07;7.10;;;19.50;1.00;;;;;;5048672;28;20196;-83
2023/05/31 09:25:50;;;;;;;11.67;7.63;;;19.40;1.00;;;;;;5053480;28;20241;-86
2023/05/31 09:28:18;;;;;;;12.50;7.73;;;19.40;1.00;;;;;;5038456;28;20171;-81
2023/05/31 09:30:45;;;;;;;13.30;8.27;;;19.60;1.00;;;;;;5037900;28;20511;-84
2023/05/31 09:33:16;;;;;;;13.43;8.40;;;19.70;1.00;;;;;;5037612;28;20280;-79
2023/05/31 09:35:56;;;;;;;10.97;7.47;;;19.80;1.00;;;;;;5037253;28;20204;-83
2023/05/31 09:38:34;;;;;;;11.03;7.80;;;19.90;1.00;;;;;;5035585;28;20183;-81
2023/05/31 09:41:14;;;;;;;13.93;8.10;;;19.90;1.00;;;;;;5036481;28;20177;-81
2023/05/31 09:43:45;;;;;;;13.47;7.17;;;20.10;1.00;;;;;;5037246;28;20200;-81
2023/05/31 09:46:14;;;;;;;11.87;7.43;;;20.10;1.00;;;;;;5049051;28;20228;-81
2023/05/31 09:48:45;;;;;;;12.57;7.67;;;20.30;1.00;;;;;;5058816;28;20194;-83
2023/05/31 09:51:12;;;;;;;15.10;6.60;;;20.10;1.00;;;;;;5044691;28;20223;-87
2023/05/31 09:53:43;;;;;;;12.47;7.47;;;20.20;1.00;;;;;;5027396;28;20740;-84
2023/05/31 09:56:21;;;;;;;9.50;7.37;;;20.30;1.00;;;;;;5042799;28;20209;-87
2023/05/31 09:58:48;;;;;;;10.53;6.57;;;20.50;1.00;;;;;;5047333;28;20166;-84
2023/05/31 10:01:19;;;;;;;10.73;7.03;;;20.70;1.00;;;;;;5050091;28;20178;-81
2023/05/31 10:03:47;;;;;;;12.50;6.97;;;20.60;1.00;;;;;;5025542;28;20170;-85
2023/05/31 10:06:16;;;;;;;12.67;6.30;;;20.70;1.00;;;;;;5021267;28;20197;-81
2023/05/31 10:08:45;;;;;;;7.57;5.43;;;20.80;1.00;;;;;;5036694;28;20639;-81
2023/05/31 10:11:14;;;;;;;9.47;5.97;;;20.70;99.90;;;;;;5042326;28;20195;-83
2023/05/31 10:13:43;;;;;;;10.97;6.40;;;20.80;99.90;;;;;;5037070;28;20215;-84
2023/05/31 10:16:10;;;;;;;13.43;6.70;;;20.60;99.90;;;;;;5038117;28;20230;-82
2023/05/31 10:18:40;;;;;;;14.97;6.07;;;20.70;99.90;;;;;;5058112;28;20658;-87
2023/05/31 10:21:24;;;;;;;11.10;6.37;;;21.10;99.90;;;;;;5038862;28;20264;-82
2023/05/31 10:24:02;;;;;;;7.33;5.37;;;21.10;99.90;;;;;;5038928;28;20179;-84
2023/05/31 10:26:51;;;;;;;9.80;5.57;;;21.20;99.90;;;;;;5057459;28;20521;-83
2023/05/31 10:29:23;;;;;;;9.13;5.87;;;21.40;99.90;;;;;;5039534;28;20667;-82
2023/05/31 10:31:51;;;;;;;7.80;5.37;;;21.40;99.90;;;;;;5040781;28;20187;-82
2023/05/31 10:34:22;;;;;;;11.10;4.50;;;21.50;99.90;;;;;;5055772;28;20162;-84
2023/05/31 10:36:53;;;;;;;11.90;5.40;;;21.70;99.90;;;;;;5056960;28;20212;-83
2023/05/31 10:39:25;;;;;;;12.03;5.97;;;21.80;99.90;;;;;;5056987;28;20155;-81
2023/05/31 10:42:05;;;;;;;10.63;5.30;;;21.70;99.90;;;;;;5038671;28;20257;-85
2023/05/31 10:44:40;;;;;;;10.53;5.30;;;21.90;99.90;;;;;;5040666;28;20196;-86
2023/05/31 10:47:09;;;;;;;10.30;5.37;;;22.10;27.60;;;;;;5057762;28;20642;-87
2023/05/31 10:49:36;;;;;;;10.50;4.57;;;21.90;99.90;;;;;;5040346;28;20179;-85
2023/05/31 10:52:09;;;;;;;10.60;4.83;;;22.10;10.10;;;;;;5059386;28;20551;-85
2023/05/31 10:54:38;;;;;;;8.40;4.33;;;22.30;1.00;;;;;;5041373;28;20183;-83
2023/05/31 10:57:05;;;;;;;10.57;4.17;;;22.30;1.00;;;;;;5074578;28;20204;-84
2023/05/31 10:59:42;;;;;;;5.80;3.20;;;22.30;1.00;;;;;;5075023;28;20172;-81
2023/05/31 11:02:09;;;;;;;11.63;3.53;;;22.20;22.90;;;;;;5057614;28;20191;-81
2023/05/31 11:04:36;;;;;;;11.43;3.63;;;22.20;99.70;;;;;;5067228;28;20173;-81
2023/05/31 11:07:16;;;;;;;7.37;3.50;;;22.20;1.00;;;;;;5057070;28;20814;-82
2023/05/31 11:09:56;;;;;;;9.47;4.17;;;22.40;99.90;;;;;;5038486;28;20211;-85
2023/05/31 11:12:40;;;;;;;8.07;3.57;;;22.50;99.90;;;;;;5036571;28;20185;-87
2023/05/31 11:15:13;;;;;;;8.93;3.53;;;22.40;1.00;;;;;;5055542;28;20643;-85
2023/05/31 11:17:50;;;;;;;247.13;24.90;;;22.60;1.00;;;;;;5056874;28;20206;-86
2023/05/31 11:20:16;;;;;;;15.40;4.30;;;22.60;1.00;;;;;;5051331;28;20228;-85
2023/05/31 11:22:43;;;;;;;6.40;3.50;;;22.70;99.90;;;;;;5055889;28;20172;-82
2023/05/31 11:25:17;;;;;;;7.57;3.80;;;22.70;1.00;;;;;;5038077;28;20217;-85
2023/05/31 11:27:48;;;;;;;7.70;3.70;;;22.80;99.90;;;;;;5055204;28;20228;-85
2023/05/31 11:30:17;;;;;;;11.67;3.47;;;22.90;99.90;;;;;;5052424;28;20200;-80
2023/05/31 11:32:43;;;;;;;7.77;3.47;;;23.10;1.00;;;;;;5054114;28;20176;-85
2023/05/31 11:35:14;;;;;;;6.83;3.20;;;23.00;1.00;;;;;;5056057;28;20267;-83
2023/05/31 11:37:41;;;;;;;7.90;3.30;;;22.90;59.90;;;;;;5036434;28;20209;-83
2023/05/31 11:40:15;;;;;;;8.33;3.37;;;22.90;1.00;;;;;;5054041;28;20239;-83
2023/05/31 11:42:48;;;;;;;5.57;3.27;;;22.90;99.90;;;;;;5058862;28;20153;-84
2023/05/31 11:45:20;;;;;;;8.27;3.47;;;23.00;86.40;;;;;;5040895;28;20557;-85
2023/05/31 11:48:00;;;;;;;8.33;3.20;;;23.00;1.00;;;;;;5054153;28;20181;-86
2023/05/31 11:50:28;;;;;;;7.00;3.10;;;23.10;1.00;;;;;;5054352;28;20176;-86
2023/05/31 11:52:54;;;;;;;9.90;3.80;;;23.00;1.00;;;;;;5055301;28;20199;-83
2023/05/31 11:55:21;;;;;;;13.00;3.83;;;23.20;1.00;;;;;;5054698;28;21064;-86
2023/05/31 11:57:51;;;;;;;6.40;3.30;;;23.40;1.00;;;;;;5056168;28;20164;-86
2023/05/31 12:00:21;;;;;;;7.70;3.40;;;23.40;67.50;;;;;;5037287;28;20196;-88
2023/05/31 12:02:56;;;;;;;8.03;3.53;;;23.40;99.90;;;;;;5052124;28;20261;-85
2023/05/31 12:05:26;;;;;;;8.20;3.43;;;23.40;1.00;;;;;;5054455;28;20167;-81
2023/05/31 12:07:54;;;;;;;5.40;3.37;;;23.40;1.00;;;;;;5036380;28;20503;-85
2023/05/31 12:10:20;;;;;;;8.73;3.73;;;23.30;1.00;;;;;;5054600;28;20263;-85
2023/05/31 12:12:48;;;;;;;8.10;3.43;;;23.30;1.00;;;;;;5056157;28;20541;-87
2023/05/31 12:15:16;;;;;;;7.27;3.40;;;23.20;1.00;;;;;;5057630;28;20275;-88
2023/05/31 12:17:42;;;;;;;7.77;3.60;;;23.40;99.90;;;;;;5038089;28;20276;-85
2023/05/31 12:20:09;;;;;;;9.20;3.33;;;23.40;1.00;;;;;;5073379;28;20184;-86
2023/05/31 12:22:35;;;;;;;5.87;3.33;;;23.50;1.00;;;;;;5041417;28;20655;-88
2023/05/31 12:25:01;;;;;;;10.27;3.70;;;23.60;99.90;;;;;;5060128;28;20165;-88
2023/05/31 12:27:28;;;;;;;6.67;3.20;;;23.60;1.00;;;;;;5039855;28;20190;-89
2023/05/31 12:30:01;;;;;;;10.10;3.43;;;23.50;1.00;;;;;;5040003;28;20360;-88
2023/05/31 12:32:28;;;;;;;11.73;3.77;;;23.60;1.00;;;;;;5041967;28;20310;-87
2023/05/31 12:35:08;;;;;;;5.97;3.00;;;23.50;1.00;;;;;;5065071;28;20176;-82
2023/05/31 12:37:39;;;;;;;6.07;3.27;;;23.40;1.00;;;;;;5051037;28;20199;-84
2023/05/31 12:40:12;;;;;;;11.80;4.27;;;23.50;1.00;;;;;;5068281;28;20234;-88
2023/05/31 12:42:38;;;;;;;9.10;3.67;;;23.70;1.00;;;;;;5060001;28;20181;-86
2023/05/31 12:45:08;;;;;;;8.60;3.57;;;23.60;1.00;;;;;;5074291;28;20185;-87
2023/05/31 12:47:36;;;;;;;7.57;3.03;;;23.70;1.00;;;;;;5062230;28;20218;-90